sensor_id;sensor_type;location;lat;lon;timestamp;P1;durP1;ratioP1;P2;durP2;ratioP2
56653;SDS011;45096;52.302;4.634;2022-12-18T00:01:40;49.43;;;21.73;;
56653;SDS011;45096;52.302;4.634;2022-12-18T00:04:06;48.70;;;22.33;;
56653;SDS011;45096;52.302;4.634;2022-12-18T00:06:34;49.10;;;22.57;;
56653;SDS011;45096;52.302;4.634;2022-12-18T00:09:01;48.33;;;22.17;;
56653;SDS011;45096;52.302;4.634;2022-12-18T00:11:28;54.97;;;22.63;;
56653;SDS011;45096;52.302;4.634;2022-12-18T00:13:55;50.77;;;21.33;;
56653;SDS011;45096;52.302;4.634;2022-12-18T00:16:22;52.10;;;22.57;;
56653;SDS011;45096;52.302;4.634;2022-12-18T00:18:49;46.27;;;22.50;;
56653;SDS011;45096;52.302;4.634;2022-12-18T00:21:15;54.27;;;21.43;;
56653;SDS011;45096;52.302;4.634;2022-12-18T00:23:43;43.10;;;19.70;;
56653;SDS011;45096;52.302;4.634;2022-12-18T00:26:11;48.20;;;21.70;;
56653;SDS011;45096;52.302;4.634;2022-12-18T00:28:37;49.37;;;20.77;;
56653;SDS011;45096;52.302;4.634;2022-12-18T00:31:03;53.03;;;22.63;;
56653;SDS011;45096;52.302;4.634;2022-12-18T00:33:30;47.93;;;21.10;;
56653;SDS011;45096;52.302;4.634;2022-12-18T00:35:59;48.80;;;20.83;;
56653;SDS011;45096;52.302;4.634;2022-12-18T00:38:25;48.40;;;23.10;;
56653;SDS011;45096;52.302;4.634;2022-12-18T00:40:52;44.90;;;19.97;;
56653;SDS011;45096;52.302;4.634;2022-12-18T00:43:17;46.10;;;21.00;;
56653;SDS011;45096;52.302;4.634;2022-12-18T00:45:43;44.67;;;19.13;;
56653;SDS011;45096;52.302;4.634;2022-12-18T00:48:08;42.23;;;20.17;;
56653;SDS011;45096;52.302;4.634;2022-12-18T00:50:33;44.57;;;20.73;;
56653;SDS011;45096;52.302;4.634;2022-12-18T00:52:59;46.93;;;21.17;;
56653;SDS011;45096;52.302;4.634;2022-12-18T00:55:24;50.87;;;23.33;;
56653;SDS011;45096;52.302;4.634;2022-12-18T00:57:51;47.70;;;19.97;;
56653;SDS011;45096;52.302;4.634;2022-12-18T01:00:17;53.57;;;21.03;;
56653;SDS011;45096;52.302;4.634;2022-12-18T01:02:43;51.60;;;22.93;;
56653;SDS011;45096;52.302;4.634;2022-12-18T01:05:08;37.90;;;19.67;;
56653;SDS011;45096;52.302;4.634;2022-12-18T01:07:35;43.03;;;21.87;;
56653;SDS011;45096;52.302;4.634;2022-12-18T01:10:01;42.17;;;20.20;;
56653;SDS011;45096;52.302;4.634;2022-12-18T01:12:26;48.07;;;22.27;;
56653;SDS011;45096;52.302;4.634;2022-12-18T01:14:53;49.40;;;20.47;;
56653;SDS011;45096;52.302;4.634;2022-12-18T01:17:18;46.50;;;20.43;;
56653;SDS011;45096;52.302;4.634;2022-12-18T01:19:44;48.53;;;19.83;;
56653;SDS011;45096;52.302;4.634;2022-12-18T01:22:10;50.97;;;22.00;;
56653;SDS011;45096;52.302;4.634;2022-12-18T01:24:35;43.80;;;19.27;;
56653;SDS011;45096;52.302;4.634;2022-12-18T01:27:01;54.97;;;21.60;;
56653;SDS011;45096;52.302;4.634;2022-12-18T01:29:26;55.50;;;21.20;;
56653;SDS011;45096;52.302;4.634;2022-12-18T01:31:54;46.87;;;21.47;;
56653;SDS011;45096;52.302;4.634;2022-12-18T01:34:20;39.93;;;19.37;;
56653;SDS011;45096;52.302;4.634;2022-12-18T01:36:45;46.20;;;21.13;;
56653;SDS011;45096;52.302;4.634;2022-12-18T01:39:11;48.87;;;20.97;;
56653;SDS011;45096;52.302;4.634;2022-12-18T01:41:38;49.10;;;19.47;;
56653;SDS011;45096;52.302;4.634;2022-12-18T01:47:04;45.63;;;20.30;;
56653;SDS011;45096;52.302;4.634;2022-12-18T01:49:30;47.17;;;20.90;;
56653;SDS011;45096;52.302;4.634;2022-12-18T01:51:55;41.57;;;18.37;;
56653;SDS011;45096;52.302;4.634;2022-12-18T01:54:20;47.53;;;19.40;;
56653;SDS011;45096;52.302;4.634;2022-12-18T01:56:46;49.37;;;21.00;;
56653;SDS011;45096;52.302;4.634;2022-12-18T01:59:11;46.50;;;20.17;;
56653;SDS011;45096;52.302;4.634;2022-12-18T02:01:38;51.20;;;21.67;;
56653;SDS011;45096;52.302;4.634;2022-12-18T02:06:45;45.67;;;20.33;;
56653;SDS011;45096;52.302;4.634;2022-12-18T02:09:13;43.30;;;20.77;;
56653;SDS011;45096;52.302;4.634;2022-12-18T02:11:44;41.70;;;18.63;;
56653;SDS011;45096;52.302;4.634;2022-12-18T02:14:17;41.33;;;18.80;;
56653;SDS011;45096;52.302;4.634;2022-12-18T02:16:47;36.47;;;19.33;;
56653;SDS011;45096;52.302;4.634;2022-12-18T02:19:22;44.83;;;19.20;;
56653;SDS011;45096;52.302;4.634;2022-12-18T02:22:11;35.60;;;17.93;;
56653;SDS011;45096;52.302;4.634;2022-12-18T02:24:45;45.87;;;18.40;;
56653;SDS011;45096;52.302;4.634;2022-12-18T02:27:21;41.03;;;19.17;;
56653;SDS011;45096;52.302;4.634;2022-12-18T02:29:48;40.47;;;18.40;;
56653;SDS011;45096;52.302;4.634;2022-12-18T02:32:16;40.93;;;18.20;;
56653;SDS011;45096;52.302;4.634;2022-12-18T02:34:45;41.53;;;18.40;;
56653;SDS011;45096;52.302;4.634;2022-12-18T02:37:12;40.17;;;18.33;;
56653;SDS011;45096;52.302;4.634;2022-12-18T02:39:40;37.67;;;18.23;;
56653;SDS011;45096;52.302;4.634;2022-12-18T02:42:07;40.00;;;19.30;;
56653;SDS011;45096;52.302;4.634;2022-12-18T02:44:34;35.10;;;18.13;;
56653;SDS011;45096;52.302;4.634;2022-12-18T02:47:00;34.30;;;17.40;;
56653;SDS011;45096;52.302;4.634;2022-12-18T02:49:28;33.00;;;16.73;;
56653;SDS011;45096;52.302;4.634;2022-12-18T02:52:00;41.53;;;18.23;;
56653;SDS011;45096;52.302;4.634;2022-12-18T02:54:35;39.93;;;19.03;;
56653;SDS011;45096;52.302;4.634;2022-12-18T02:57:05;41.90;;;17.00;;
56653;SDS011;45096;52.302;4.634;2022-12-18T02:59:38;36.53;;;17.80;;
56653;SDS011;45096;52.302;4.634;2022-12-18T03:02:08;37.40;;;17.07;;
56653;SDS011;45096;52.302;4.634;2022-12-18T03:04:42;39.40;;;19.40;;
56653;SDS011;45096;52.302;4.634;2022-12-18T03:07:10;42.77;;;18.23;;
56653;SDS011;45096;52.302;4.634;2022-12-18T03:09:46;35.90;;;16.80;;
56653;SDS011;45096;52.302;4.634;2022-12-18T03:12:14;37.90;;;17.37;;
56653;SDS011;45096;52.302;4.634;2022-12-18T03:14:43;38.87;;;18.30;;
56653;SDS011;45096;52.302;4.634;2022-12-18T03:17:09;33.63;;;17.63;;
56653;SDS011;45096;52.302;4.634;2022-12-18T03:19:36;34.80;;;17.90;;
56653;SDS011;45096;52.302;4.634;2022-12-18T03:22:03;42.97;;;17.57;;
56653;SDS011;45096;52.302;4.634;2022-12-18T03:24:29;34.70;;;16.70;;
56653;SDS011;45096;52.302;4.634;2022-12-18T03:26:57;39.17;;;17.77;;
56653;SDS011;45096;52.302;4.634;2022-12-18T03:29:26;34.73;;;17.13;;
56653;SDS011;45096;52.302;4.634;2022-12-18T03:31:57;37.40;;;16.37;;
56653;SDS011;45096;52.302;4.634;2022-12-18T03:34:29;37.17;;;17.70;;
56653;SDS011;45096;52.302;4.634;2022-12-18T03:36:56;39.60;;;17.83;;
56653;SDS011;45096;52.302;4.634;2022-12-18T03:39:21;33.57;;;15.57;;
56653;SDS011;45096;52.302;4.634;2022-12-18T03:41:48;34.53;;;16.27;;
56653;SDS011;45096;52.302;4.634;2022-12-18T03:44:18;33.03;;;17.07;;
56653;SDS011;45096;52.302;4.634;2022-12-18T03:46:47;37.77;;;17.60;;
56653;SDS011;45096;52.302;4.634;2022-12-18T03:49:19;37.53;;;17.23;;
56653;SDS011;45096;52.302;4.634;2022-12-18T03:51:50;34.63;;;16.50;;
56653;SDS011;45096;52.302;4.634;2022-12-18T03:54:18;28.20;;;15.77;;
56653;SDS011;45096;52.302;4.634;2022-12-18T03:56:44;33.10;;;16.53;;
56653;SDS011;45096;52.302;4.634;2022-12-18T03:59:12;34.47;;;17.80;;
56653;SDS011;45096;52.302;4.634;2022-12-18T04:01:42;29.30;;;14.77;;
56653;SDS011;45096;52.302;4.634;2022-12-18T04:04:10;35.47;;;15.87;;
56653;SDS011;45096;52.302;4.634;2022-12-18T04:06:37;37.80;;;16.23;;
56653;SDS011;45096;52.302;4.634;2022-12-18T04:09:03;30.17;;;15.07;;
56653;SDS011;45096;52.302;4.634;2022-12-18T04:11:29;35.53;;;16.23;;
56653;SDS011;45096;52.302;4.634;2022-12-18T04:13:55;33.53;;;16.20;;
56653;SDS011;45096;52.302;4.634;2022-12-18T04:16:20;40.33;;;17.20;;
56653;SDS011;45096;52.302;4.634;2022-12-18T04:18:46;28.27;;;14.87;;
56653;SDS011;45096;52.302;4.634;2022-12-18T04:21:11;33.87;;;16.10;;
56653;SDS011;45096;52.302;4.634;2022-12-18T04:23:38;31.87;;;15.10;;
56653;SDS011;45096;52.302;4.634;2022-12-18T04:26:04;34.70;;;15.47;;
56653;SDS011;45096;52.302;4.634;2022-12-18T04:28:29;34.57;;;15.50;;
56653;SDS011;45096;52.302;4.634;2022-12-18T04:30:54;34.97;;;15.73;;
56653;SDS011;45096;52.302;4.634;2022-12-18T04:33:20;27.83;;;17.03;;
56653;SDS011;45096;52.302;4.634;2022-12-18T04:35:45;39.13;;;18.20;;
56653;SDS011;45096;52.302;4.634;2022-12-18T04:38:11;31.10;;;15.50;;
56653;SDS011;45096;52.302;4.634;2022-12-18T04:40:38;30.50;;;16.13;;
56653;SDS011;45096;52.302;4.634;2022-12-18T04:43:03;34.47;;;16.60;;
56653;SDS011;45096;52.302;4.634;2022-12-18T04:45:29;40.90;;;20.53;;
56653;SDS011;45096;52.302;4.634;2022-12-18T04:47:56;32.53;;;16.03;;
56653;SDS011;45096;52.302;4.634;2022-12-18T04:50:22;37.70;;;17.63;;
56653;SDS011;45096;52.302;4.634;2022-12-18T04:52:47;34.97;;;17.27;;
56653;SDS011;45096;52.302;4.634;2022-12-18T04:55:12;34.57;;;17.03;;
56653;SDS011;45096;52.302;4.634;2022-12-18T04:57:39;35.63;;;16.13;;
56653;SDS011;45096;52.302;4.634;2022-12-18T05:00:05;37.10;;;16.80;;
56653;SDS011;45096;52.302;4.634;2022-12-18T05:02:32;36.50;;;16.90;;
56653;SDS011;45096;52.302;4.634;2022-12-18T05:04:57;34.80;;;17.37;;
56653;SDS011;45096;52.302;4.634;2022-12-18T05:07:23;35.10;;;17.57;;
56653;SDS011;45096;52.302;4.634;2022-12-18T05:09:48;39.50;;;17.17;;
56653;SDS011;45096;52.302;4.634;2022-12-18T05:12:13;34.40;;;17.67;;
56653;SDS011;45096;52.302;4.634;2022-12-18T05:14:40;34.43;;;17.37;;
56653;SDS011;45096;52.302;4.634;2022-12-18T05:17:05;33.40;;;16.30;;
56653;SDS011;45096;52.302;4.634;2022-12-18T05:19:31;40.50;;;17.83;;
56653;SDS011;45096;52.302;4.634;2022-12-18T05:21:56;31.67;;;17.40;;
56653;SDS011;45096;52.302;4.634;2022-12-18T05:24:22;33.73;;;17.23;;
56653;SDS011;45096;52.302;4.634;2022-12-18T05:26:47;33.30;;;17.50;;
56653;SDS011;45096;52.302;4.634;2022-12-18T05:29:13;38.50;;;15.20;;
56653;SDS011;45096;52.302;4.634;2022-12-18T05:31:40;28.93;;;16.03;;
56653;SDS011;45096;52.302;4.634;2022-12-18T05:34:05;38.03;;;16.77;;
56653;SDS011;45096;52.302;4.634;2022-12-18T05:36:31;31.57;;;16.50;;
56653;SDS011;45096;52.302;4.634;2022-12-18T05:38:56;31.50;;;15.97;;
56653;SDS011;45096;52.302;4.634;2022-12-18T05:41:22;33.30;;;16.23;;
56653;SDS011;45096;52.302;4.634;2022-12-18T05:43:47;36.53;;;17.13;;
56653;SDS011;45096;52.302;4.634;2022-12-18T05:46:13;35.67;;;16.93;;
56653;SDS011;45096;52.302;4.634;2022-12-18T05:48:41;37.10;;;17.77;;
56653;SDS011;45096;52.302;4.634;2022-12-18T05:51:07;36.43;;;17.77;;
56653;SDS011;45096;52.302;4.634;2022-12-18T05:53:34;34.60;;;17.23;;
56653;SDS011;45096;52.302;4.634;2022-12-18T05:56:00;30.60;;;15.83;;
56653;SDS011;45096;52.302;4.634;2022-12-18T05:58:26;35.50;;;16.83;;
56653;SDS011;45096;52.302;4.634;2022-12-18T06:00:51;36.03;;;16.27;;
56653;SDS011;45096;52.302;4.634;2022-12-18T06:03:17;36.00;;;16.63;;
56653;SDS011;45096;52.302;4.634;2022-12-18T06:05:44;33.60;;;17.63;;
56653;SDS011;45096;52.302;4.634;2022-12-18T06:08:10;34.53;;;17.10;;
56653;SDS011;45096;52.302;4.634;2022-12-18T06:10:36;31.70;;;16.30;;
56653;SDS011;45096;52.302;4.634;2022-12-18T06:13:01;32.43;;;17.33;;
56653;SDS011;45096;52.302;4.634;2022-12-18T06:15:27;37.20;;;15.83;;
56653;SDS011;45096;52.302;4.634;2022-12-18T06:17:52;34.60;;;16.90;;
56653;SDS011;45096;52.302;4.634;2022-12-18T06:20:17;30.90;;;17.43;;
56653;SDS011;45096;52.302;4.634;2022-12-18T06:22:44;33.17;;;17.43;;
56653;SDS011;45096;52.302;4.634;2022-12-18T06:25:10;35.07;;;17.47;;
56653;SDS011;45096;52.302;4.634;2022-12-18T06:27:35;33.07;;;15.77;;
56653;SDS011;45096;52.302;4.634;2022-12-18T06:30:01;31.50;;;16.53;;
56653;SDS011;45096;52.302;4.634;2022-12-18T06:32:27;33.93;;;17.57;;
56653;SDS011;45096;52.302;4.634;2022-12-18T06:34:53;34.83;;;17.10;;
56653;SDS011;45096;52.302;4.634;2022-12-18T06:37:18;32.27;;;16.20;;
56653;SDS011;45096;52.302;4.634;2022-12-18T06:39:45;32.53;;;14.83;;
56653;SDS011;45096;52.302;4.634;2022-12-18T06:42:10;28.37;;;15.90;;
56653;SDS011;45096;52.302;4.634;2022-12-18T06:44:35;31.60;;;15.33;;
56653;SDS011;45096;52.302;4.634;2022-12-18T06:47:01;31.80;;;15.73;;
56653;SDS011;45096;52.302;4.634;2022-12-18T06:49:26;32.87;;;16.33;;
56653;SDS011;45096;52.302;4.634;2022-12-18T06:51:52;26.93;;;14.80;;
56653;SDS011;45096;52.302;4.634;2022-12-18T06:54:17;34.03;;;16.07;;
56653;SDS011;45096;52.302;4.634;2022-12-18T06:56:45;28.93;;;15.70;;
56653;SDS011;45096;52.302;4.634;2022-12-18T06:59:11;29.37;;;16.00;;
56653;SDS011;45096;52.302;4.634;2022-12-18T07:01:37;30.20;;;16.40;;
56653;SDS011;45096;52.302;4.634;2022-12-18T07:04:02;34.60;;;18.33;;
56653;SDS011;45096;52.302;4.634;2022-12-18T07:06:28;34.13;;;16.57;;
56653;SDS011;45096;52.302;4.634;2022-12-18T07:08:53;33.60;;;16.27;;
56653;SDS011;45096;52.302;4.634;2022-12-18T07:11:19;28.20;;;15.57;;
56653;SDS011;45096;52.302;4.634;2022-12-18T07:13:46;26.93;;;15.03;;
56653;SDS011;45096;52.302;4.634;2022-12-18T07:16:12;31.60;;;17.10;;
56653;SDS011;45096;52.302;4.634;2022-12-18T07:18:39;32.73;;;16.33;;
56653;SDS011;45096;52.302;4.634;2022-12-18T07:21:05;31.87;;;16.10;;
56653;SDS011;45096;52.302;4.634;2022-12-18T07:23:31;32.70;;;15.13;;
56653;SDS011;45096;52.302;4.634;2022-12-18T07:26:00;29.93;;;16.10;;
56653;SDS011;45096;52.302;4.634;2022-12-18T07:28:26;29.70;;;15.17;;
56653;SDS011;45096;52.302;4.634;2022-12-18T07:30:52;28.93;;;16.33;;
56653;SDS011;45096;52.302;4.634;2022-12-18T07:33:18;27.73;;;14.53;;
56653;SDS011;45096;52.302;4.634;2022-12-18T07:35:43;25.77;;;15.00;;
56653;SDS011;45096;52.302;4.634;2022-12-18T07:38:08;29.03;;;15.30;;
56653;SDS011;45096;52.302;4.634;2022-12-18T07:40:34;31.87;;;16.53;;
56653;SDS011;45096;52.302;4.634;2022-12-18T07:42:59;32.33;;;16.23;;
56653;SDS011;45096;52.302;4.634;2022-12-18T07:45:25;23.20;;;13.83;;
56653;SDS011;45096;52.302;4.634;2022-12-18T07:47:51;29.27;;;15.13;;
56653;SDS011;45096;52.302;4.634;2022-12-18T07:50:17;29.17;;;14.63;;
56653;SDS011;45096;52.302;4.634;2022-12-18T07:52:42;26.37;;;14.43;;
56653;SDS011;45096;52.302;4.634;2022-12-18T07:55:08;25.90;;;13.53;;
56653;SDS011;45096;52.302;4.634;2022-12-18T07:57:33;24.37;;;14.50;;
56653;SDS011;45096;52.302;4.634;2022-12-18T07:59:59;23.57;;;13.90;;
56653;SDS011;45096;52.302;4.634;2022-12-18T08:02:24;24.43;;;14.27;;
56653;SDS011;45096;52.302;4.634;2022-12-18T08:04:51;27.37;;;14.07;;
56653;SDS011;45096;52.302;4.634;2022-12-18T08:07:16;24.70;;;13.87;;
56653;SDS011;45096;52.302;4.634;2022-12-18T08:09:42;26.23;;;13.60;;
56653;SDS011;45096;52.302;4.634;2022-12-18T08:12:07;26.37;;;14.03;;
56653;SDS011;45096;52.302;4.634;2022-12-18T08:14:32;20.93;;;12.77;;
56653;SDS011;45096;52.302;4.634;2022-12-18T08:16:58;26.97;;;13.83;;
56653;SDS011;45096;52.302;4.634;2022-12-18T08:19:23;22.50;;;14.03;;
56653;SDS011;45096;52.302;4.634;2022-12-18T08:21:50;24.90;;;14.07;;
56653;SDS011;45096;52.302;4.634;2022-12-18T08:24:16;22.60;;;13.80;;
56653;SDS011;45096;52.302;4.634;2022-12-18T08:26:42;21.47;;;12.93;;
56653;SDS011;45096;52.302;4.634;2022-12-18T08:29:08;24.13;;;13.70;;
56653;SDS011;45096;52.302;4.634;2022-12-18T08:31:33;17.53;;;12.33;;
56653;SDS011;45096;52.302;4.634;2022-12-18T08:33:59;26.40;;;12.27;;
56653;SDS011;45096;52.302;4.634;2022-12-18T08:36:24;20.97;;;13.33;;
56653;SDS011;45096;52.302;4.634;2022-12-18T08:38:51;24.93;;;14.73;;
56653;SDS011;45096;52.302;4.634;2022-12-18T08:41:17;25.20;;;13.03;;
56653;SDS011;45096;52.302;4.634;2022-12-18T08:43:44;27.70;;;13.07;;
56653;SDS011;45096;52.302;4.634;2022-12-18T08:46:09;23.17;;;13.43;;
56653;SDS011;45096;52.302;4.634;2022-12-18T08:48:35;19.27;;;12.10;;
56653;SDS011;45096;52.302;4.634;2022-12-18T08:51:00;23.17;;;12.50;;
56653;SDS011;45096;52.302;4.634;2022-12-18T08:53:25;21.30;;;13.33;;
56653;SDS011;45096;52.302;4.634;2022-12-18T08:55:53;22.23;;;12.77;;
56653;SDS011;45096;52.302;4.634;2022-12-18T08:58:18;20.07;;;11.20;;
56653;SDS011;45096;52.302;4.634;2022-12-18T09:00:44;17.73;;;11.33;;
56653;SDS011;45096;52.302;4.634;2022-12-18T09:03:10;21.17;;;12.10;;
56653;SDS011;45096;52.302;4.634;2022-12-18T09:05:36;22.23;;;12.00;;
56653;SDS011;45096;52.302;4.634;2022-12-18T09:08:02;22.73;;;12.40;;
56653;SDS011;45096;52.302;4.634;2022-12-18T09:10:27;16.37;;;10.67;;
56653;SDS011;45096;52.302;4.634;2022-12-18T09:12:54;24.63;;;11.47;;
56653;SDS011;45096;52.302;4.634;2022-12-18T09:15:19;22.43;;;12.97;;
56653;SDS011;45096;52.302;4.634;2022-12-18T09:17:45;21.10;;;11.27;;
56653;SDS011;45096;52.302;4.634;2022-12-18T09:20:10;19.60;;;12.23;;
56653;SDS011;45096;52.302;4.634;2022-12-18T09:22:35;19.30;;;11.53;;
56653;SDS011;45096;52.302;4.634;2022-12-18T09:25:01;17.27;;;11.37;;
56653;SDS011;45096;52.302;4.634;2022-12-18T09:27:26;18.83;;;11.53;;
56653;SDS011;45096;52.302;4.634;2022-12-18T09:29:53;18.57;;;10.63;;
56653;SDS011;45096;52.302;4.634;2022-12-18T09:32:18;18.60;;;12.47;;
56653;SDS011;45096;52.302;4.634;2022-12-18T09:34:44;18.70;;;10.97;;
56653;SDS011;45096;52.302;4.634;2022-12-18T09:37:09;18.80;;;11.77;;
56653;SDS011;45096;52.302;4.634;2022-12-18T09:39:35;17.07;;;11.87;;
56653;SDS011;45096;52.302;4.634;2022-12-18T09:42:00;20.87;;;12.50;;
56653;SDS011;45096;52.302;4.634;2022-12-18T09:44:26;17.07;;;10.37;;
56653;SDS011;45096;52.302;4.634;2022-12-18T09:46:57;13.77;;;10.87;;
56653;SDS011;45096;52.302;4.634;2022-12-18T09:49:26;17.63;;;11.47;;
56653;SDS011;45096;52.302;4.634;2022-12-18T09:51:54;15.87;;;10.23;;
56653;SDS011;45096;52.302;4.634;2022-12-18T09:54:22;16.60;;;10.87;;
56653;SDS011;45096;52.302;4.634;2022-12-18T09:56:49;19.53;;;11.37;;
56653;SDS011;45096;52.302;4.634;2022-12-18T09:59:17;20.63;;;12.70;;
56653;SDS011;45096;52.302;4.634;2022-12-18T10:01:45;17.23;;;11.13;;
56653;SDS011;45096;52.302;4.634;2022-12-18T10:04:12;18.63;;;11.63;;
56653;SDS011;45096;52.302;4.634;2022-12-18T10:06:38;17.40;;;11.40;;
56653;SDS011;45096;52.302;4.634;2022-12-18T10:09:07;19.17;;;11.87;;
56653;SDS011;45096;52.302;4.634;2022-12-18T10:11:39;18.43;;;10.63;;
56653;SDS011;45096;52.302;4.634;2022-12-18T10:14:09;17.57;;;10.40;;
56653;SDS011;45096;52.302;4.634;2022-12-18T10:16:40;20.43;;;11.87;;
56653;SDS011;45096;52.302;4.634;2022-12-18T10:19:14;17.47;;;10.87;;
56653;SDS011;45096;52.302;4.634;2022-12-18T10:21:45;16.80;;;10.80;;
56653;SDS011;45096;52.302;4.634;2022-12-18T10:24:18;14.57;;;10.40;;
56653;SDS011;45096;52.302;4.634;2022-12-18T10:26:47;16.00;;;10.30;;
56653;SDS011;45096;52.302;4.634;2022-12-18T10:29:12;18.50;;;10.87;;
56653;SDS011;45096;52.302;4.634;2022-12-18T10:31:39;16.20;;;10.73;;
56653;SDS011;45096;52.302;4.634;2022-12-18T10:34:08;18.00;;;11.10;;
56653;SDS011;45096;52.302;4.634;2022-12-18T10:36:35;15.60;;;11.00;;
56653;SDS011;45096;52.302;4.634;2022-12-18T10:39:07;19.27;;;11.43;;
56653;SDS011;45096;52.302;4.634;2022-12-18T10:41:39;13.00;;;9.70;;
56653;SDS011;45096;52.302;4.634;2022-12-18T10:44:11;20.77;;;12.83;;
56653;SDS011;45096;52.302;4.634;2022-12-18T10:46:39;15.30;;;9.97;;
56653;SDS011;45096;52.302;4.634;2022-12-18T10:49:05;20.17;;;11.20;;
56653;SDS011;45096;52.302;4.634;2022-12-18T10:51:45;21.07;;;11.83;;
56653;SDS011;45096;52.302;4.634;2022-12-18T10:54:13;16.07;;;10.83;;
56653;SDS011;45096;52.302;4.634;2022-12-18T10:56:40;18.80;;;10.83;;
56653;SDS011;45096;52.302;4.634;2022-12-18T10:59:07;17.00;;;10.30;;
56653;SDS011;45096;52.302;4.634;2022-12-18T11:01:45;17.63;;;11.30;;
56653;SDS011;45096;52.302;4.634;2022-12-18T11:04:13;19.83;;;10.97;;
56653;SDS011;45096;52.302;4.634;2022-12-18T11:06:53;19.57;;;11.20;;
56653;SDS011;45096;52.302;4.634;2022-12-18T11:09:21;20.37;;;10.83;;
56653;SDS011;45096;52.302;4.634;2022-12-18T11:11:47;19.80;;;11.23;;
56653;SDS011;45096;52.302;4.634;2022-12-18T11:14:15;18.97;;;11.73;;
56653;SDS011;45096;52.302;4.634;2022-12-18T11:16:43;16.23;;;11.43;;
56653;SDS011;45096;52.302;4.634;2022-12-18T11:19:18;17.07;;;11.33;;
56653;SDS011;45096;52.302;4.634;2022-12-18T11:21:45;19.20;;;11.60;;
56653;SDS011;45096;52.302;4.634;2022-12-18T11:24:17;16.60;;;10.73;;
56653;SDS011;45096;52.302;4.634;2022-12-18T11:26:45;18.30;;;11.03;;
56653;SDS011;45096;52.302;4.634;2022-12-18T11:29:15;17.13;;;11.63;;
56653;SDS011;45096;52.302;4.634;2022-12-18T11:31:42;18.30;;;11.83;;
56653;SDS011;45096;52.302;4.634;2022-12-18T11:34:08;17.07;;;10.27;;
56653;SDS011;45096;52.302;4.634;2022-12-18T11:36:36;17.50;;;11.87;;
56653;SDS011;45096;52.302;4.634;2022-12-18T11:39:05;16.13;;;10.63;;
56653;SDS011;45096;52.302;4.634;2022-12-18T11:41:39;17.93;;;11.10;;
56653;SDS011;45096;52.302;4.634;2022-12-18T11:44:10;17.57;;;10.60;;
56653;SDS011;45096;52.302;4.634;2022-12-18T11:46:37;17.07;;;10.13;;
56653;SDS011;45096;52.302;4.634;2022-12-18T11:49:07;17.67;;;10.17;;
56653;SDS011;45096;52.302;4.634;2022-12-18T11:51:38;18.60;;;11.90;;
56653;SDS011;45096;52.302;4.634;2022-12-18T11:54:09;16.13;;;10.80;;
56653;SDS011;45096;52.302;4.634;2022-12-18T11:56:39;15.97;;;10.47;;
56653;SDS011;45096;52.302;4.634;2022-12-18T11:59:09;16.83;;;10.93;;
56653;SDS011;45096;52.302;4.634;2022-12-18T12:01:44;17.70;;;10.83;;
56653;SDS011;45096;52.302;4.634;2022-12-18T12:04:22;19.40;;;10.57;;
56653;SDS011;45096;52.302;4.634;2022-12-18T12:06:58;14.70;;;9.73;;
56653;SDS011;45096;52.302;4.634;2022-12-18T12:09:31;18.57;;;11.27;;
56653;SDS011;45096;52.302;4.634;2022-12-18T12:12:08;15.33;;;10.23;;
56653;SDS011;45096;52.302;4.634;2022-12-18T12:14:44;17.27;;;10.40;;
56653;SDS011;45096;52.302;4.634;2022-12-18T12:17:15;15.93;;;10.73;;
56653;SDS011;45096;52.302;4.634;2022-12-18T12:19:46;18.43;;;10.63;;
56653;SDS011;45096;52.302;4.634;2022-12-18T12:22:18;16.93;;;10.60;;
56653;SDS011;45096;52.302;4.634;2022-12-18T12:24:49;19.60;;;10.97;;
56653;SDS011;45096;52.302;4.634;2022-12-18T12:27:23;17.10;;;11.07;;
56653;SDS011;45096;52.302;4.634;2022-12-18T12:29:56;16.40;;;10.40;;
56653;SDS011;45096;52.302;4.634;2022-12-18T12:32:32;19.20;;;11.27;;
56653;SDS011;45096;52.302;4.634;2022-12-18T12:35:08;16.23;;;10.60;;
56653;SDS011;45096;52.302;4.634;2022-12-18T12:37:43;19.17;;;11.83;;
56653;SDS011;45096;52.302;4.634;2022-12-18T12:40:12;17.83;;;11.30;;
56653;SDS011;45096;52.302;4.634;2022-12-18T12:42:42;16.13;;;11.13;;
56653;SDS011;45096;52.302;4.634;2022-12-18T12:45:13;18.73;;;11.63;;
56653;SDS011;45096;52.302;4.634;2022-12-18T12:47:41;15.33;;;11.40;;
56653;SDS011;45096;52.302;4.634;2022-12-18T12:50:11;17.30;;;10.50;;
56653;SDS011;45096;52.302;4.634;2022-12-18T12:52:39;18.47;;;11.03;;
56653;SDS011;45096;52.302;4.634;2022-12-18T12:55:11;15.63;;;11.20;;
56653;SDS011;45096;52.302;4.634;2022-12-18T12:57:39;16.67;;;10.80;;
56653;SDS011;45096;52.302;4.634;2022-12-18T13:00:09;19.63;;;11.13;;
56653;SDS011;45096;52.302;4.634;2022-12-18T13:02:37;17.07;;;11.70;;
56653;SDS011;45096;52.302;4.634;2022-12-18T13:05:11;16.60;;;11.23;;
56653;SDS011;45096;52.302;4.634;2022-12-18T13:07:45;16.77;;;10.83;;
56653;SDS011;45096;52.302;4.634;2022-12-18T13:10:24;15.13;;;9.53;;
56653;SDS011;45096;52.302;4.634;2022-12-18T13:12:52;18.37;;;10.90;;
56653;SDS011;45096;52.302;4.634;2022-12-18T13:15:21;17.57;;;11.07;;
56653;SDS011;45096;52.302;4.634;2022-12-18T13:17:48;16.23;;;10.33;;
56653;SDS011;45096;52.302;4.634;2022-12-18T13:20:14;17.77;;;11.20;;
56653;SDS011;45096;52.302;4.634;2022-12-18T13:22:41;19.87;;;11.57;;
56653;SDS011;45096;52.302;4.634;2022-12-18T13:25:31;15.57;;;9.87;;
56653;SDS011;45096;52.302;4.634;2022-12-18T13:28:03;17.03;;;10.83;;
56653;SDS011;45096;52.302;4.634;2022-12-18T13:36:26;18.83;;;11.13;;
56653;SDS011;45096;52.302;4.634;2022-12-18T13:41:46;15.17;;;10.70;;
56653;SDS011;45096;52.302;4.634;2022-12-18T13:44:20;13.70;;;9.43;;
56653;SDS011;45096;52.302;4.634;2022-12-18T13:46:51;18.83;;;10.97;;
56653;SDS011;45096;52.302;4.634;2022-12-18T13:49:20;19.70;;;10.90;;
56653;SDS011;45096;52.302;4.634;2022-12-18T13:51:48;17.90;;;10.67;;
56653;SDS011;45096;52.302;4.634;2022-12-18T13:54:17;14.63;;;10.57;;
56653;SDS011;45096;52.302;4.634;2022-12-18T13:56:44;16.53;;;11.03;;
56653;SDS011;45096;52.302;4.634;2022-12-18T13:59:13;16.27;;;10.63;;
56653;SDS011;45096;52.302;4.634;2022-12-18T14:01:47;18.97;;;11.03;;
56653;SDS011;45096;52.302;4.634;2022-12-18T14:04:26;15.93;;;11.10;;
56653;SDS011;45096;52.302;4.634;2022-12-18T14:06:53;15.80;;;11.40;;
56653;SDS011;45096;52.302;4.634;2022-12-18T14:09:23;16.70;;;10.37;;
56653;SDS011;45096;52.302;4.634;2022-12-18T14:11:50;17.77;;;10.83;;
56653;SDS011;45096;52.302;4.634;2022-12-18T14:14:17;14.50;;;10.80;;
56653;SDS011;45096;52.302;4.634;2022-12-18T14:16:43;19.13;;;11.07;;
56653;SDS011;45096;52.302;4.634;2022-12-18T14:19:09;15.07;;;11.27;;
56653;SDS011;45096;52.302;4.634;2022-12-18T14:21:38;19.40;;;11.00;;
56653;SDS011;45096;52.302;4.634;2022-12-18T14:24:05;17.87;;;11.40;;
56653;SDS011;45096;52.302;4.634;2022-12-18T14:26:36;15.80;;;11.03;;
56653;SDS011;45096;52.302;4.634;2022-12-18T14:29:17;18.40;;;10.50;;
56653;SDS011;45096;52.302;4.634;2022-12-18T14:31:44;16.23;;;11.37;;
56653;SDS011;45096;52.302;4.634;2022-12-18T14:34:14;19.50;;;12.30;;
56653;SDS011;45096;52.302;4.634;2022-12-18T14:36:41;16.90;;;11.27;;
56653;SDS011;45096;52.302;4.634;2022-12-18T14:39:17;18.37;;;11.57;;